createdAt,value
2022-11-05T00:02:24.658Z,27.80
2022-11-05T00:05:10.540Z,28.20
2022-11-05T00:07:57.578Z,27.40
2022-11-05T00:10:26.530Z,28.40
2022-11-05T00:13:12.599Z,29.40
2022-11-05T00:15:58.452Z,28.70
2022-11-05T00:18:25.755Z,29.80
2022-11-05T00:20:52.682Z,24.40
2022-11-05T00:23:38.507Z,22.80
2022-11-05T00:26:09.907Z,24.80
2022-11-05T00:28:37.573Z,25.80
2022-11-05T00:31:09.785Z,32.50
2022-11-05T00:33:41.772Z,30.40
2022-11-05T00:36:10.352Z,29.80
2022-11-05T00:38:37.670Z,30.60
2022-11-05T00:41:05.331Z,23.20
2022-11-05T00:43:50.781Z,23.90
2022-11-05T00:46:17.914Z,25.10
2022-11-05T00:49:03.868Z,25.80
2022-11-05T00:51:30.903Z,26.30
2022-11-05T00:53:57.904Z,28.70
2022-11-05T00:56:24.821Z,27.80
2022-11-05T00:58:51.847Z,27.20
2022-11-05T01:01:19.365Z,29.50
2022-11-05T01:03:51.438Z,22.50
2022-11-05T01:06:18.935Z,22.40
2022-11-05T01:08:45.983Z,24.70
2022-11-05T01:11:34.608Z,23.90
2022-11-05T01:14:02.485Z,24.60
2022-11-05T01:16:29.799Z,25.40
2022-11-05T01:18:56.844Z,25.30
2022-11-05T01:21:24.070Z,19.90
2022-11-05T01:23:51.165Z,21.10
2022-11-05T01:26:19.701Z,21.60
2022-11-05T01:29:02.819Z,21.10
2022-11-05T01:31:30.697Z,21.50
2022-11-05T01:33:57.865Z,23.70
2022-11-05T01:36:27.532Z,23.00
2022-11-05T01:38:54.690Z,21.80
2022-11-05T01:41:21.764Z,22.00
2022-11-05T01:43:56.699Z,18.60
2022-11-05T01:46:36.958Z,18.60
2022-11-05T01:49:18.545Z,27.50
2022-11-05T01:51:46.004Z,25.60
2022-11-05T01:54:14.750Z,22.30
2022-11-05T01:56:44.956Z,22.90
2022-11-05T01:59:12.496Z,23.50
2022-11-05T02:01:39.752Z,20.10
2022-11-05T02:04:14.190Z,23.50
2022-11-05T02:06:46.603Z,22.00
2022-11-05T02:09:21.595Z,21.40
2022-11-05T02:11:51.740Z,21.00
2022-11-05T02:14:21.836Z,20.90
2022-11-05T02:17:12.545Z,21.80
2022-11-05T02:19:57.773Z,27.20
2022-11-05T02:22:53.434Z,20.50
2022-11-05T02:25:41.998Z,19.60
2022-11-05T02:28:30.563Z,19.70
2022-11-05T02:31:12.405Z,21.50
2022-11-05T02:33:45.571Z,22.20
2022-11-05T02:36:34.044Z,19.70
2022-11-05T02:39:21.713Z,23.60
2022-11-05T02:42:01.945Z,22.60
2022-11-05T02:45:14.843Z,17.30
2022-11-05T02:47:44.001Z,18.70
2022-11-05T02:50:25.338Z,17.50
2022-11-05T02:53:01.897Z,20.70
2022-11-05T02:55:34.708Z,21.40
2022-11-05T02:58:05.428Z,19.70
2022-11-05T03:00:45.699Z,23.70
2022-11-05T03:03:34.966Z,16.40
2022-11-05T03:06:08.156Z,18.70
2022-11-05T03:08:39.598Z,19.20
2022-11-05T03:11:20.076Z,22.10
2022-11-05T03:13:59.185Z,21.90
2022-11-05T03:16:35.634Z,20.60
2022-11-05T03:19:19.623Z,20.80
2022-11-05T03:22:01.705Z,16.40
2022-11-05T03:24:40.880Z,17.30
2022-11-05T03:27:15.725Z,20.00
2022-11-05T03:29:44.678Z,18.90
2022-11-05T03:32:12.029Z,19.10
2022-11-05T03:34:42.059Z,18.30
2022-11-05T03:37:09.520Z,19.00
2022-11-05T03:39:39.260Z,19.30
2022-11-05T03:42:07.265Z,20.10
2022-11-05T03:44:35.535Z,16.10
2022-11-05T03:47:05.610Z,16.70
2022-11-05T03:49:43.454Z,17.50
2022-11-05T03:52:15.652Z,17.00
2022-11-05T03:54:42.606Z,18.90
2022-11-05T03:57:12.364Z,19.00
2022-11-05T03:59:43.292Z,19.70
2022-11-05T04:02:11.114Z,20.30
2022-11-05T04:04:41.509Z,16.40
2022-11-05T04:07:27.901Z,18.90
2022-11-05T04:10:15.515Z,18.10
2022-11-05T04:13:01.802Z,17.80
2022-11-05T04:15:30.378Z,17.60
2022-11-05T04:17:59.112Z,17.90
2022-11-05T04:20:45.193Z,17.60
2022-11-05T04:23:31.265Z,21.20
2022-11-05T04:25:59.018Z,15.50
2022-11-05T04:28:46.085Z,15.80
2022-11-05T04:31:13.016Z,17.00
2022-11-05T04:33:40.081Z,15.90
2022-11-05T04:36:07.427Z,19.50
2022-11-05T04:38:34.672Z,17.60
2022-11-05T04:41:15.518Z,18.00
2022-11-05T04:43:43.625Z,18.10
2022-11-05T04:46:10.631Z,16.10
2022-11-05T04:48:37.912Z,15.40
2022-11-05T04:51:05.166Z,14.80
2022-11-05T04:53:32.132Z,14.60
2022-11-05T04:56:12.962Z,15.70
2022-11-05T04:58:43.248Z,20.20
2022-11-05T05:01:22.719Z,16.90
2022-11-05T05:03:50.688Z,21.30
2022-11-05T05:06:17.836Z,36.70
2022-11-05T05:08:46.960Z,23.10
2022-11-05T05:11:16.079Z,22.70
2022-11-05T05:13:43.785Z,23.60
2022-11-05T05:16:21.383Z,50.60
2022-11-05T05:18:48.915Z,28.10
2022-11-05T05:21:35.979Z,25.60
2022-11-05T05:24:04.426Z,22.10
2022-11-05T05:26:31.459Z,44.50
2022-11-05T05:29:00.378Z,69.90
2022-11-05T05:31:27.424Z,39.80
2022-11-05T05:33:54.663Z,28.30
2022-11-05T05:36:22.625Z,20.30
2022-11-05T05:38:49.655Z,67.50
2022-11-05T05:41:16.702Z,34.90
2022-11-05T05:43:45.042Z,41.60
2022-11-05T05:46:14.726Z,50.60
2022-11-05T05:48:43.258Z,24.60
2022-11-05T05:51:11.289Z,17.40
2022-11-05T05:53:38.836Z,29.80
2022-11-05T05:56:06.082Z,23.60
2022-11-05T05:58:35.816Z,19.20
2022-11-05T06:01:07.793Z,20.80
2022-11-05T06:03:36.401Z,22.10
2022-11-05T06:06:05.232Z,17.30
2022-11-05T06:08:33.335Z,25.50
2022-11-05T06:11:01.078Z,32.20
2022-11-05T06:13:28.329Z,26.10
2022-11-05T06:16:02.621Z,27.50
2022-11-05T06:18:30.506Z,25.20
2022-11-05T06:21:17.108Z,25.30
2022-11-05T06:23:44.917Z,28.80
2022-11-05T06:26:13.999Z,29.50
2022-11-05T06:28:42.242Z,36.20
2022-11-05T06:31:10.022Z,31.40
2022-11-05T06:33:37.261Z,34.00
2022-11-05T06:36:05.994Z,24.40
2022-11-05T06:38:34.082Z,25.80
2022-11-05T06:41:05.751Z,27.90
2022-11-05T06:43:37.757Z,18.80
2022-11-05T06:46:04.977Z,29.20
2022-11-05T06:48:31.989Z,29.30
2022-11-05T06:50:59.936Z,30.40
2022-11-05T06:53:27.296Z,29.10
2022-11-05T06:55:54.370Z,23.50
2022-11-05T06:58:21.876Z,20.80
2022-11-05T07:00:49.730Z,25.40
2022-11-05T07:03:16.800Z,29.00
2022-11-05T07:05:48.638Z,17.30
2022-11-05T07:08:16.969Z,17.40
2022-11-05T07:10:45.224Z,23.30
2022-11-05T07:13:12.752Z,19.60
2022-11-05T07:15:40.012Z,22.70
2022-11-05T07:18:08.577Z,18.50
2022-11-05T07:20:39.959Z,21.20
2022-11-05T07:23:11.437Z,18.00
2022-11-05T07:25:38.651Z,17.00
2022-11-05T07:28:06.647Z,24.50
2022-11-05T07:30:34.058Z,17.00
2022-11-05T07:33:01.244Z,17.20
2022-11-05T07:35:28.532Z,24.50
2022-11-05T07:37:55.824Z,23.90
2022-11-05T07:40:24.374Z,22.40
2022-11-05T07:42:57.757Z,25.10
2022-11-05T07:45:25.780Z,18.70
2022-11-05T07:47:57.983Z,20.50
2022-11-05T07:50:27.172Z,21.60
2022-11-05T07:52:59.934Z,21.00
2022-11-05T07:55:26.988Z,26.10
2022-11-05T07:57:53.949Z,21.00
2022-11-05T08:00:23.837Z,22.30
2022-11-05T08:03:07.160Z,17.50
2022-11-05T08:05:37.084Z,18.40
2022-11-05T08:08:04.410Z,20.70
2022-11-05T08:10:31.542Z,20.90
2022-11-05T08:12:58.752Z,19.80
2022-11-05T08:15:26.093Z,20.60
2022-11-05T08:18:01.371Z,21.20
2022-11-05T08:20:29.249Z,16.60
2022-11-05T08:22:57.562Z,19.50
2022-11-05T08:25:24.788Z,20.70
2022-11-05T08:28:02.741Z,20.40
2022-11-05T08:30:30.179Z,20.70
2022-11-05T08:33:02.651Z,20.60
2022-11-05T08:35:29.869Z,21.60
2022-11-05T08:37:58.235Z,22.50
2022-11-05T08:40:26.184Z,18.90
2022-11-05T08:42:53.725Z,20.90
2022-11-05T08:45:21.210Z,20.50
2022-11-05T08:47:49.116Z,35.40
2022-11-05T08:50:17.154Z,26.60
2022-11-05T08:52:44.645Z,27.20
2022-11-05T08:55:11.836Z,31.80
2022-11-05T08:57:39.123Z,22.80
2022-11-05T09:00:06.894Z,22.30
2022-11-05T09:02:35.417Z,25.60
2022-11-05T09:05:02.408Z,28.10
2022-11-05T09:07:29.908Z,20.70
2022-11-05T09:09:57.057Z,21.80
2022-11-05T09:12:24.104Z,23.40
2022-11-05T09:14:51.425Z,27.30
2022-11-05T09:17:21.880Z,26.10
2022-11-05T09:19:49.444Z,19.80
2022-11-05T09:22:16.640Z,19.70
2022-11-05T09:24:44.683Z,24.10
2022-11-05T09:27:13.453Z,23.40
2022-11-05T09:29:41.973Z,26.20
2022-11-05T09:32:09.239Z,18.60
2022-11-05T09:34:37.953Z,19.40
2022-11-05T09:37:04.992Z,22.90
2022-11-05T09:39:32.422Z,20.90
2022-11-05T09:42:04.657Z,21.60
2022-11-05T09:44:42.380Z,21.40
2022-11-05T09:47:17.683Z,23.60
2022-11-05T09:49:48.628Z,35.20
2022-11-05T09:54:48.192Z,25.70
2022-11-05T09:57:17.629Z,20.00
2022-11-05T10:00:05.608Z,24.80
2022-11-05T10:02:35.283Z,22.40
2022-11-05T10:05:09.706Z,24.10
2022-11-05T10:07:55.657Z,22.70
2022-11-05T10:10:40.782Z,19.50
2022-11-05T10:13:22.057Z,21.80
2022-11-05T10:16:03.115Z,21.40
2022-11-05T10:18:35.378Z,26.40
2022-11-05T10:21:03.257Z,46.60
2022-11-05T10:23:30.371Z,27.20
2022-11-05T10:26:11.772Z,22.50
2022-11-05T10:28:39.433Z,25.40
2022-11-05T10:31:08.420Z,24.10
2022-11-05T10:33:41.668Z,27.30
2022-11-05T10:36:15.515Z,25.20
2022-11-05T10:38:42.953Z,20.60
2022-11-05T10:41:36.437Z,23.80
2022-11-05T10:44:17.723Z,24.60
2022-11-05T10:47:16.351Z,22.80
2022-11-05T10:50:04.808Z,23.90
2022-11-05T10:52:37.283Z,17.90
2022-11-05T10:55:11.211Z,20.60
2022-11-05T10:57:39.727Z,29.50
2022-11-05T11:00:19.048Z,25.60
2022-11-05T11:02:49.689Z,22.70
2022-11-05T11:05:40.166Z,25.60
2022-11-05T11:08:13.361Z,18.90
2022-11-05T11:10:50.774Z,22.10
2022-11-05T11:13:23.338Z,29.90
2022-11-05T11:15:51.203Z,22.30
2022-11-05T11:18:35.906Z,23.10
2022-11-05T11:21:14.434Z,25.10
2022-11-05T11:23:42.439Z,23.50
2022-11-05T11:26:10.508Z,26.80
2022-11-05T11:28:46.279Z,24.40
2022-11-05T11:31:13.860Z,21.40
2022-11-05T11:33:42.386Z,26.50
2022-11-05T11:36:10.151Z,21.20
2022-11-05T11:38:37.309Z,25.50
2022-11-05T11:41:11.635Z,22.60
2022-11-05T11:43:40.341Z,23.80
2022-11-05T11:46:16.316Z,18.30
2022-11-05T11:48:45.830Z,18.40
2022-11-05T11:51:30.449Z,19.90
2022-11-05T11:53:59.376Z,23.80
2022-11-05T11:56:27.105Z,25.00
2022-11-05T11:58:55.478Z,28.20
2022-11-05T12:01:25.987Z,18.40
2022-11-05T12:04:20.214Z,23.90
2022-11-05T12:07:00.675Z,24.00
2022-11-05T12:09:39.889Z,26.80
2022-11-05T12:12:11.726Z,26.80
2022-11-05T12:14:53.272Z,25.50
2022-11-05T12:17:20.355Z,18.80
2022-11-05T12:20:00.443Z,26.60
2022-11-05T12:23:28.394Z,24.20
2022-11-05T12:26:17.936Z,23.40
2022-11-05T12:29:18.964Z,22.90
2022-11-05T12:32:23.537Z,29.70
2022-11-05T12:35:16.848Z,19.20
2022-11-05T12:38:11.533Z,21.80
2022-11-05T12:41:04.456Z,22.10
2022-11-05T12:43:40.769Z,22.50
2022-11-05T12:46:29.900Z,30.20
2022-11-05T12:49:31.002Z,26.60
2022-11-05T12:52:12.559Z,16.00
2022-11-05T12:54:39.558Z,25.30
2022-11-05T12:57:08.973Z,23.70
2022-11-05T12:59:54.432Z,24.70
2022-11-05T13:02:24.176Z,24.00
2022-11-05T13:04:54.304Z,23.20
2022-11-05T13:07:25.622Z,18.60
2022-11-05T13:09:59.689Z,20.40
2022-11-05T13:12:27.786Z,32.00
2022-11-05T13:15:13.011Z,24.20
2022-11-05T13:17:58.547Z,24.80
2022-11-05T13:20:29.146Z,24.20
2022-11-05T13:23:00.791Z,18.70
2022-11-05T13:25:32.310Z,19.30
2022-11-05T13:28:09.820Z,24.50
2022-11-05T13:30:41.887Z,22.80
2022-11-05T13:33:18.291Z,24.10
2022-11-05T13:35:48.580Z,24.60
2022-11-05T13:38:42.001Z,25.60
2022-11-05T13:41:51.427Z,20.40
2022-11-05T13:44:56.078Z,21.20
2022-11-05T13:47:34.622Z,22.60
2022-11-05T13:50:07.857Z,25.30
2022-11-05T13:52:44.256Z,28.00
2022-11-05T13:55:30.174Z,25.20
2022-11-05T13:58:09.285Z,19.30
2022-11-05T14:01:27.711Z,21.70
2022-11-05T14:03:55.638Z,24.00
2022-11-05T14:06:25.133Z,26.60
2022-11-05T14:08:52.133Z,27.90
2022-11-05T14:11:25.985Z,26.90
2022-11-05T14:13:57.868Z,19.80
2022-11-05T14:16:27.306Z,21.20
2022-11-05T14:19:18.063Z,24.10
2022-11-05T14:21:53.066Z,24.70
2022-11-05T14:24:23.202Z,24.90
2022-11-05T14:27:03.012Z,26.50
2022-11-05T14:29:46.324Z,21.60
2022-11-05T14:32:19.562Z,24.40
2022-11-05T14:35:05.329Z,24.50
2022-11-05T14:37:42.486Z,24.00
2022-11-05T14:40:21.790Z,27.50
2022-11-05T14:42:53.529Z,27.10
2022-11-05T14:45:27.684Z,22.70
2022-11-05T14:49:20.592Z,38.70
2022-11-05T14:51:51.862Z,41.20
2022-11-05T14:54:41.338Z,32.70
2022-11-05T14:57:14.895Z,30.30
2022-11-05T14:59:52.494Z,37.50
2022-11-05T15:02:31.674Z,29.70
2022-11-05T15:05:36.980Z,24.10
2022-11-05T15:08:52.679Z,25.40
2022-11-05T15:11:33.016Z,29.80
2022-11-05T15:14:05.324Z,27.70
2022-11-05T15:16:40.414Z,28.20
2022-11-05T15:19:19.690Z,26.70
2022-11-05T15:21:46.655Z,20.40
2022-11-05T15:24:15.087Z,23.50
2022-11-05T15:26:47.888Z,26.60
2022-11-05T15:29:19.491Z,36.80
2022-11-05T15:31:48.323Z,39.30
2022-11-05T15:34:20.686Z,37.30
2022-11-05T15:36:49.711Z,37.70
2022-11-05T15:39:29.688Z,31.90
2022-11-05T15:41:58.540Z,33.30
2022-11-05T15:44:33.067Z,32.40
2022-11-05T15:47:15.427Z,32.70
2022-11-05T15:49:45.632Z,32.70
2022-11-05T15:52:14.524Z,41.70
2022-11-05T15:54:41.837Z,42.60
2022-11-05T15:57:21.630Z,30.20
2022-11-05T15:59:48.614Z,46.00
2022-11-05T16:02:22.920Z,43.90
2022-11-05T16:04:50.484Z,35.10
2022-11-05T16:07:17.652Z,35.40
2022-11-05T16:09:55.517Z,35.50
2022-11-05T16:12:35.917Z,38.50
2022-11-05T16:15:10.163Z,28.60
2022-11-05T16:17:39.942Z,31.60
2022-11-05T16:20:29.266Z,33.60
2022-11-05T16:23:05.150Z,32.70
2022-11-05T16:25:42.758Z,33.00
2022-11-05T16:28:19.725Z,33.30
2022-11-05T16:30:56.503Z,33.60
2022-11-05T16:33:24.476Z,34.90
2022-11-05T16:35:51.498Z,26.20
2022-11-05T16:38:18.632Z,29.00
2022-11-05T16:40:45.991Z,29.60
2022-11-05T16:43:25.521Z,31.90
2022-11-05T16:45:57.972Z,31.20
2022-11-05T16:48:26.166Z,40.50
2022-11-05T16:50:53.464Z,42.40
2022-11-05T16:53:20.431Z,36.50
2022-11-05T16:55:47.490Z,39.40
2022-11-05T16:58:20.777Z,41.80
2022-11-05T17:00:49.698Z,32.20
2022-11-05T17:03:16.891Z,36.60
2022-11-05T17:05:43.965Z,38.40
2022-11-05T17:08:11.898Z,32.80
2022-11-05T17:10:41.758Z,32.80
2022-11-05T17:13:19.272Z,36.10
2022-11-05T17:15:50.684Z,30.70
2022-11-05T17:18:19.349Z,28.50
2022-11-05T17:20:49.956Z,39.60
2022-11-05T17:23:19.163Z,33.40
2022-11-05T17:25:47.681Z,33.10
2022-11-05T17:28:15.268Z,38.70
2022-11-05T17:30:43.914Z,38.50
2022-11-05T17:33:13.129Z,41.20
2022-11-05T17:35:40.959Z,30.50
2022-11-05T17:38:08.764Z,32.60
2022-11-05T17:40:54.319Z,34.30
2022-11-05T17:43:21.504Z,39.60
2022-11-05T17:45:50.336Z,40.80
2022-11-05T17:48:21.580Z,42.90
2022-11-05T17:50:49.545Z,39.30
2022-11-05T17:53:17.996Z,44.30
2022-11-05T17:55:45.584Z,30.90
2022-11-05T17:58:13.052Z,43.40
2022-11-05T18:00:40.255Z,41.80
2022-11-05T18:03:07.494Z,45.20
2022-11-05T18:05:35.447Z,47.70
2022-11-05T18:08:03.010Z,40.00
2022-11-05T18:10:30.079Z,48.70
2022-11-05T18:12:58.132Z,45.50
2022-11-05T18:15:25.179Z,36.00
2022-11-05T18:17:53.191Z,38.90
2022-11-05T18:20:20.513Z,52.70
2022-11-05T18:22:51.178Z,48.40
2022-11-05T18:25:18.740Z,63.10
2022-11-05T18:27:46.080Z,54.20
2022-11-05T18:30:15.623Z,66.20
2022-11-05T18:32:44.170Z,49.60
2022-11-05T18:35:11.903Z,53.70
2022-11-05T18:37:40.079Z,53.50
2022-11-05T18:40:07.729Z,54.10
2022-11-05T18:42:35.654Z,80.00
2022-11-05T18:45:02.684Z,72.30
2022-11-05T18:47:29.952Z,58.40
2022-11-05T18:49:57.060Z,52.50
2022-11-05T18:52:25.963Z,59.50
2022-11-05T18:54:53.051Z,52.40
2022-11-05T18:57:19.980Z,54.60
2022-11-05T18:59:47.188Z,56.60
2022-11-05T19:02:14.388Z,58.80
2022-11-05T19:05:00.384Z,69.40
2022-11-05T19:07:30.623Z,80.30
2022-11-05T19:09:57.884Z,114.40
2022-11-05T19:12:24.877Z,106.70
2022-11-05T19:14:56.676Z,94.90
2022-11-05T19:17:27.083Z,76.30
2022-11-05T19:19:55.169Z,69.90
2022-11-05T19:22:24.122Z,70.10
2022-11-05T19:24:51.276Z,55.90
2022-11-05T19:27:19.935Z,58.60
2022-11-05T19:29:47.303Z,50.30
2022-11-05T19:32:14.650Z,56.60
2022-11-05T19:34:41.684Z,52.10
2022-11-05T19:37:09.706Z,53.50
2022-11-05T19:39:36.804Z,57.80
2022-11-05T19:42:04.250Z,58.80
2022-11-05T19:44:31.939Z,46.30
2022-11-05T19:46:58.993Z,50.40
2022-11-05T19:49:28.145Z,65.00
2022-11-05T19:51:56.000Z,66.10
2022-11-05T19:54:23.164Z,64.10
2022-11-05T19:56:51.975Z,72.50
2022-11-05T19:59:19.137Z,60.60
2022-11-05T20:01:47.008Z,54.20
2022-11-05T20:04:15.076Z,42.80
2022-11-05T20:06:43.012Z,46.40
2022-11-05T20:09:22.511Z,51.10
2022-11-05T20:11:50.819Z,50.10
2022-11-05T20:14:18.039Z,51.40
2022-11-05T20:16:47.188Z,47.20
2022-11-05T20:19:16.284Z,46.00
2022-11-05T20:21:43.417Z,38.80
2022-11-05T20:24:18.850Z,46.60
2022-11-05T20:26:50.712Z,48.30
2022-11-05T20:29:17.691Z,56.70
2022-11-05T20:31:44.693Z,54.60
2022-11-05T20:34:11.774Z,55.60
2022-11-05T20:38:14.404Z,52.60
2022-11-05T20:40:42.367Z,37.50
2022-11-05T20:43:09.375Z,38.90
2022-11-05T20:45:38.156Z,38.40
2022-11-05T20:48:05.813Z,44.20
2022-11-05T20:50:32.778Z,41.40
2022-11-05T20:52:59.900Z,44.40
2022-11-05T20:55:27.261Z,43.10
2022-11-05T20:57:54.735Z,42.90
2022-11-05T21:00:21.927Z,34.70
2022-11-05T21:02:49.288Z,37.50
2022-11-05T21:05:16.632Z,37.30
2022-11-05T21:07:44.476Z,40.10
2022-11-05T21:10:12.134Z,38.80
2022-11-05T21:12:40.281Z,38.70
2022-11-05T21:15:08.726Z,39.70
2022-11-05T21:17:35.817Z,31.10
2022-11-05T21:20:02.745Z,31.40
2022-11-05T21:22:30.021Z,34.50
2022-11-05T21:24:58.947Z,34.50
2022-11-05T21:27:26.700Z,34.70
2022-11-05T21:29:53.645Z,34.40
2022-11-05T21:32:20.774Z,76.30
2022-11-05T21:34:47.802Z,33.50
2022-11-05T21:37:15.870Z,40.40
2022-11-05T21:39:42.960Z,37.70
2022-11-05T21:42:10.036Z,174.70
2022-11-05T21:44:37.359Z,104.30
2022-11-05T21:47:05.085Z,78.20
2022-11-05T21:49:34.142Z,99.40
2022-11-05T21:52:39.727Z,41.30
2022-11-05T21:55:25.830Z,45.50
2022-11-05T21:58:12.008Z,74.60
2022-11-05T22:00:39.204Z,67.90
2022-11-05T22:03:06.151Z,44.80
2022-11-05T22:05:35.407Z,35.30
2022-11-05T22:08:03.207Z,35.10
2022-11-05T22:10:30.840Z,31.40
2022-11-05T22:12:57.970Z,32.30
2022-11-05T22:15:25.388Z,26.70
2022-11-05T22:17:53.566Z,25.70
2022-11-05T22:20:21.375Z,30.30
2022-11-05T22:22:49.579Z,31.30
2022-11-05T22:25:16.810Z,19.90
2022-11-05T22:27:44.132Z,18.50
2022-11-05T22:30:11.734Z,22.50
2022-11-05T22:32:39.395Z,20.10
2022-11-05T22:35:07.704Z,27.20
2022-11-05T22:37:35.000Z,24.30
2022-11-05T22:40:02.023Z,21.40
2022-11-05T22:42:30.247Z,16.30
2022-11-05T22:44:58.325Z,16.80
2022-11-05T22:47:25.483Z,22.00
2022-11-05T22:49:52.930Z,22.20
2022-11-05T22:52:20.867Z,21.50
2022-11-05T22:54:48.204Z,23.60
2022-11-05T22:57:15.188Z,23.10
2022-11-05T22:59:42.270Z,18.80
2022-11-05T23:02:10.208Z,18.60
2022-11-05T23:04:37.978Z,20.40
2022-11-05T23:07:27.554Z,19.30
2022-11-05T23:10:13.942Z,20.10
2022-11-05T23:12:43.677Z,18.40
2022-11-05T23:15:30.717Z,20.60
2022-11-05T23:18:16.807Z,15.80
2022-11-05T23:21:04.415Z,19.10
2022-11-05T23:23:50.165Z,16.70
2022-11-05T23:26:36.068Z,18.20
2022-11-05T23:29:03.067Z,18.20
2022-11-05T23:31:49.140Z,19.90
2022-11-05T23:34:16.142Z,18.80
2022-11-05T23:37:01.829Z,15.80
2022-11-05T23:39:28.755Z,15.10
2022-11-05T23:42:14.424Z,18.00
2022-11-05T23:45:00.656Z,18.50
2022-11-05T23:47:46.432Z,19.10
2022-11-05T23:50:13.385Z,25.00
2022-11-05T23:52:40.291Z,20.90
2022-11-05T23:55:07.610Z,20.50
2022-11-05T23:57:34.599Z,18.60
